Time;durP1;ratioP1;P1;durP2;ratioP2;P2;SDS_P1;SDS_P2;PMS_P1;PMS_P2;Temp;Humidity;BMP_temperature;BMP_pressure;BME280_temperature;BME280_humidity;BME280_pressure;Samples;Min_cycle;Max_cycle;Signal;HPM_P1;HPM_P2
2022/09/04 00:01:17;;;;;;;3.23;2.30;;;;;;;-144.22;100.00;60274.75;6222741;28;20232;-65
2022/09/04 00:04:25;;;;;;;2.27;2.07;;;;;;;-144.22;100.00;60274.75;6206889;28;20243;-64
2022/09/04 00:07:52;;;;;;;3.40;2.10;;;;;;;-144.22;100.00;60274.75;6208216;28;20231;-65
2022/09/04 00:11:24;;;;;;;2.40;2.20;;;;;;;-144.22;100.00;60274.75;6208677;28;20739;-65
2022/09/04 00:14:26;;;;;;;2.70;1.90;;;;;;;-144.22;100.00;60274.75;6206708;28;20231;-65
2022/09/04 00:17:30;;;;;;;2.93;1.77;;;;;;;-144.22;100.00;60274.75;6206428;28;20258;-64
2022/09/04 00:20:44;;;;;;;1.83;1.73;;;;;;;-144.22;100.00;60274.75;6206810;28;20225;-65
2022/09/04 00:23:57;;;;;;;2.13;1.87;;;;;;;-144.22;100.00;60274.75;6206076;28;20241;-64
2022/09/04 00:27:06;;;;;;;1.50;1.40;;;;;;;-144.22;100.00;60274.75;6208849;28;20236;-65
2022/09/04 00:30:15;;;;;;;1.33;1.23;;;;;;;-144.22;100.00;60274.75;6206102;28;20742;-65
2022/09/04 00:33:31;;;;;;;2.37;1.40;;;;;;;-144.22;100.00;60274.75;6206669;28;20307;-65
2022/09/04 00:36:37;;;;;;;1.83;1.50;;;;;;;-144.22;100.00;60274.75;6207687;28;20224;-64
2022/09/04 00:39:49;;;;;;;1.30;1.20;;;;;;;-144.22;100.00;60274.75;6207609;28;20275;-64
2022/09/04 00:43:35;;;;;;;1.10;0.93;;;;;;;-144.22;100.00;60274.75;6207644;28;20235;-65
2022/09/04 00:46:46;;;;;;;1.57;1.47;;;;;;;-144.22;100.00;60274.75;6210646;28;20239;-65
2022/09/04 00:50:19;;;;;;;1.60;1.27;;;;;;;-144.22;100.00;60274.75;6206808;28;20787;-65
2022/09/04 00:53:41;;;;;;;1.30;1.20;;;;;;;-144.22;100.00;60274.75;6200288;28;20302;-65
2022/09/04 00:57:05;;;;;;;1.33;1.23;;;;;;;-144.22;100.00;60274.75;6212300;28;20782;-65
2022/09/04 01:04:38;;;;;;;1.40;1.30;;;;;;;-144.22;100.00;60274.75;6210903;28;20339;-65
2022/09/04 01:08:06;;;;;;;1.30;1.20;;;;;;;-144.22;100.00;60274.75;6230532;28;20782;-65
2022/09/04 01:11:38;;;;;;;2.17;1.43;;;;;;;-144.22;100.00;60274.75;6232219;28;20330;-65
2022/09/04 01:15:13;;;;;;;1.60;1.50;;;;;;;-144.22;100.00;60274.75;6230147;28;20318;-65
2022/09/04 01:18:29;;;;;;;2.27;1.60;;;;;;;-144.22;100.00;60274.75;6215597;28;20602;-65
2022/09/04 01:22:03;;;;;;;1.50;1.40;;;;;;;-144.22;100.00;60274.75;6229813;28;20808;-65
2022/09/04 01:25:20;;;;;;;2.50;1.60;;;;;;;-144.22;100.00;60274.75;6229949;28;20755;-65
2022/09/04 01:28:40;;;;;;;1.50;1.40;;;;;;;-144.22;100.00;60274.75;6228828;28;20327;-65
2022/09/04 01:32:07;;;;;;;2.00;1.50;;;;;;;-144.22;100.00;60274.75;6229423;28;20247;-65
2022/09/04 01:35:09;;;;;;;1.77;1.67;;;;;;;-144.22;100.00;60274.75;6229844;28;20354;-65
2022/09/04 01:38:24;;;;;;;1.63;1.53;;;;;;;-144.22;100.00;60274.75;6229218;28;20220;-65
2022/09/04 01:41:32;;;;;;;2.90;1.97;;;;;;;-144.22;100.00;60274.75;6229966;28;20239;-65
2022/09/04 01:44:39;;;;;;;1.40;1.30;;;;;;;-144.22;100.00;60274.75;6229644;28;20242;-65
2022/09/04 01:47:50;;;;;;;1.90;1.80;;;;;;;-144.22;100.00;60274.75;6229961;28;20293;-65
2022/09/04 01:51:00;;;;;;;1.43;1.33;;;;;;;-144.22;100.00;60274.75;6228478;28;20247;-65
2022/09/04 01:54:16;;;;;;;1.73;1.60;;;;;;;-144.22;100.00;60274.75;6228881;28;20220;-65
2022/09/04 01:57:42;;;;;;;1.87;1.73;;;;;;;-144.22;100.00;60274.75;6232101;28;20562;-65
2022/09/04 02:00:59;;;;;;;2.43;1.70;;;;;;;-144.22;100.00;60274.75;6229658;28;20309;-65
2022/09/04 02:04:28;;;;;;;1.63;1.53;;;;;;;-144.22;100.00;60274.75;6220658;28;20236;-65
2022/09/04 02:07:46;;;;;;;1.60;1.50;;;;;;;-144.22;100.00;60274.75;6228356;28;20316;-64
2022/09/04 02:10:50;;;;;;;1.77;1.40;;;;;;;-144.22;100.00;60274.75;6228904;28;20297;-64
2022/09/04 02:14:11;;;;;;;1.70;1.60;;;;;;;-144.22;100.00;60274.75;6229496;28;20708;-64
2022/09/04 02:17:40;;;;;;;1.80;1.53;;;;;;;-144.22;100.00;60274.75;6229492;28;20679;-64
2022/09/04 02:21:37;;;;;;;1.80;1.70;;;;;;;-144.22;100.00;60274.75;6228367;28;20744;-64
2022/09/04 02:25:08;;;;;;;1.80;1.70;;;;;;;-144.22;100.00;60274.75;6162196;28;20315;-65
2022/09/04 02:28:35;;;;;;;2.00;1.80;;;;;;;-144.22;100.00;60274.75;6229138;28;20228;-65
2022/09/04 02:31:49;;;;;;;2.10;1.87;;;;;;;-144.22;100.00;60274.75;6234286;28;20325;-65
2022/09/04 02:35:02;;;;;;;1.67;1.57;;;;;;;-144.22;100.00;60274.75;6229116;28;20305;-64
2022/09/04 02:38:17;;;;;;;2.07;1.93;;;;;;;-144.22;100.00;60274.75;6229615;28;20586;-65
2022/09/04 02:41:37;;;;;;;1.87;1.73;;;;;;;-144.22;100.00;60274.75;6229280;28;20634;-64
2022/09/04 02:45:07;;;;;;;1.70;1.60;;;;;;;-144.22;100.00;60274.75;6228648;28;20692;-64
2022/09/04 02:48:33;;;;;;;2.43;2.27;;;;;;;-144.22;100.00;60274.75;6229581;28;20247;-65
2022/09/04 02:52:00;;;;;;;2.57;2.07;;;;;;;-144.22;100.00;60274.75;6216466;28;20313;-64
2022/09/04 02:55:36;;;;;;;2.97;2.20;;;;;;;-144.22;100.00;60274.75;6204404;28;20233;-65
2022/09/04 02:58:38;;;;;;;2.40;2.00;;;;;;;-144.22;100.00;60274.75;6225303;28;20235;-65
2022/09/04 03:01:56;;;;;;;1.90;1.80;;;;;;;-144.22;100.00;60274.75;6229436;28;20717;-65
2022/09/04 03:05:21;;;;;;;1.97;1.87;;;;;;;-144.22;100.00;60274.75;6192170;28;20718;-65
2022/09/04 03:08:57;;;;;;;2.00;1.90;;;;;;;-144.22;100.00;60274.75;6181339;28;20233;-65
2022/09/04 03:12:25;;;;;;;2.20;2.00;;;;;;;-144.22;100.00;60274.75;6176585;28;20233;-65
2022/09/04 03:15:50;;;;;;;1.97;1.87;;;;;;;-144.22;100.00;60274.75;6180438;28;21683;-65
2022/09/04 03:19:07;;;;;;;1.80;1.70;;;;;;;-144.22;100.00;60274.75;6181434;28;20236;-65
2022/09/04 03:22:35;;;;;;;2.30;1.60;;;;;;;-144.22;100.00;60274.75;6182098;28;20237;-65
2022/09/04 03:26:18;;;;;;;1.80;1.70;;;;;;;-144.22;100.00;60274.75;6182288;28;20229;-64
2022/09/04 03:29:35;;;;;;;1.80;1.70;;;;;;;-144.22;100.00;60274.75;6130004;28;20245;-65
2022/09/04 03:33:03;;;;;;;1.80;1.70;;;;;;;-144.22;100.00;60274.75;6233007;28;20232;-65
2022/09/04 03:36:17;;;;;;;2.50;1.83;;;;;;;-144.22;100.00;60274.75;6215302;28;20647;-65
2022/09/04 03:39:42;;;;;;;5.10;1.77;;;;;;;-144.22;100.00;60274.75;6238560;28;20695;-65
2022/09/04 03:43:12;;;;;;;1.60;1.50;;;;;;;-144.22;100.00;60274.75;6220741;28;20240;-65
2022/09/04 03:46:14;;;;;;;1.60;1.50;;;;;;;-144.22;100.00;60274.75;6232203;28;20634;-65
2022/09/04 03:49:16;;;;;;;1.70;1.60;;;;;;;-144.22;100.00;60274.75;6232764;28;20599;-65
2022/09/04 03:52:33;;;;;;;1.60;1.50;;;;;;;-144.22;100.00;60274.75;6231978;28;20238;-65
2022/09/04 03:55:38;;;;;;;1.67;1.57;;;;;;;-144.22;100.00;60274.75;6232874;28;20318;-65
2022/09/04 03:59:11;;;;;;;2.30;2.07;;;;;;;-144.22;100.00;60274.75;6231089;28;20301;-65
2022/09/04 04:02:44;;;;;;;1.87;1.77;;;;;;;-144.22;100.00;60274.75;6232875;28;20593;-65
2022/09/04 04:05:55;;;;;;;2.03;1.83;;;;;;;-144.22;100.00;60274.75;6231357;28;20793;-65
2022/09/04 04:09:33;;;;;;;1.43;1.33;;;;;;;-144.22;100.00;60274.75;6231915;28;20247;-65
2022/09/04 04:13:03;;;;;;;2.10;1.60;;;;;;;-144.22;100.00;60274.75;6230335;28;20243;-65
2022/09/04 04:16:11;;;;;;;2.10;2.00;;;;;;;-144.22;100.00;60274.75;6231861;28;20322;-65
2022/09/04 04:19:34;;;;;;;1.90;1.70;;;;;;;-144.22;100.00;60274.75;6232122;28;20224;-65
2022/09/04 04:22:51;;;;;;;2.00;1.90;;;;;;;-144.22;100.00;60274.75;6231975;28;20228;-65
2022/09/04 04:26:20;;;;;;;2.20;2.10;;;;;;;-144.22;100.00;60274.75;6230774;28;20242;-65
2022/09/04 04:29:45;;;;;;;2.20;2.00;;;;;;;-144.22;100.00;60274.75;6231209;28;20239;-65
2022/09/04 04:33:31;;;;;;;2.30;1.80;;;;;;;-144.22;100.00;60274.75;6222225;28;20689;-65
2022/09/04 04:37:34;;;;;;;1.83;1.70;;;;;;;-144.22;100.00;60274.75;6187978;28;20228;-64
2022/09/04 04:41:01;;;;;;;1.77;1.67;;;;;;;-144.22;100.00;60274.75;6179174;28;20588;-64
2022/09/04 04:44:15;;;;;;;1.90;1.80;;;;;;;-144.22;100.00;60274.75;6231620;28;20224;-64
2022/09/04 04:47:39;;;;;;;1.97;1.87;;;;;;;-144.22;100.00;60274.75;6231661;28;20239;-64
2022/09/04 04:51:11;;;;;;;2.40;2.20;;;;;;;-144.22;100.00;60274.75;6230770;28;20309;-65
2022/09/04 04:54:45;;;;;;;1.90;1.80;;;;;;;-144.22;100.00;60274.75;6230863;28;20234;-65
2022/09/04 04:58:10;;;;;;;2.47;1.93;;;;;;;-144.22;100.00;60274.75;6230800;28;20227;-65
2022/09/04 05:01:43;;;;;;;2.00;1.90;;;;;;;-144.22;100.00;60274.75;6231491;28;20232;-65
2022/09/04 05:05:03;;;;;;;1.90;1.80;;;;;;;-144.22;100.00;60274.75;6223946;28;20691;-65
2022/09/04 05:08:16;;;;;;;2.27;2.07;;;;;;;-144.22;100.00;60274.75;6230771;28;20228;-65
2022/09/04 05:11:41;;;;;;;2.13;2.00;;;;;;;-144.22;100.00;60274.75;6231253;28;20227;-65
2022/09/04 05:15:19;;;;;;;2.30;2.10;;;;;;;-144.22;100.00;60274.75;6230020;28;20350;-64
2022/09/04 05:18:27;;;;;;;2.30;2.10;;;;;;;-144.22;100.00;60274.75;6216532;28;20229;-65
2022/09/04 05:22:06;;;;;;;2.60;2.40;;;;;;;-144.22;100.00;60274.75;6229829;28;20266;-65
2022/09/04 05:25:15;;;;;;;2.40;1.87;;;;;;;-144.22;100.00;60274.75;6229073;28;20323;-65
2022/09/04 05:28:34;;;;;;;2.13;1.97;;;;;;;-144.22;100.00;60274.75;6229167;28;20578;-65
2022/09/04 05:32:01;;;;;;;2.50;2.30;;;;;;;-144.22;100.00;60274.75;6229381;28;20252;-65
2022/09/04 05:35:24;;;;;;;2.17;1.97;;;;;;;-144.22;100.00;60274.75;6230257;28;20254;-65
2022/09/04 05:38:58;;;;;;;2.30;2.10;;;;;;;-144.22;100.00;60274.75;6229705;28;20713;-65
2022/09/04 05:42:20;;;;;;;2.20;2.10;;;;;;;-144.22;100.00;60274.75;6228665;28;20223;-65
2022/09/04 05:45:27;;;;;;;1.90;1.80;;;;;;;-144.22;100.00;60274.75;6227804;28;20559;-65
2022/09/04 05:48:34;;;;;;;1.70;1.60;;;;;;;-144.22;100.00;60274.75;6228938;28;20699;-65
2022/09/04 05:51:39;;;;;;;2.37;2.10;;;;;;;-144.22;100.00;60274.75;6229894;28;20230;-65
2022/09/04 05:55:09;;;;;;;2.20;1.97;;;;;;;-144.22;100.00;60274.75;6227946;28;20236;-65
2022/09/04 05:58:33;;;;;;;2.17;2.07;;;;;;;-144.22;100.00;60274.75;6212191;28;20240;-65
2022/09/04 06:02:18;;;;;;;2.43;2.23;;;;;;;-144.22;100.00;60274.75;6210226;28;20247;-65
2022/09/04 06:05:33;;;;;;;2.00;1.90;;;;;;;-144.22;100.00;60274.75;6228717;28;20258;-64
2022/09/04 06:09:10;;;;;;;2.00;1.90;;;;;;;-144.22;100.00;60274.75;6228742;28;20758;-65
2022/09/04 06:12:26;;;;;;;1.70;1.60;;;;;;;-144.22;100.00;60274.75;6228436;28;20752;-65
2022/09/04 06:16:02;;;;;;;2.07;1.90;;;;;;;-144.22;100.00;60274.75;6227463;28;20255;-65
2022/09/04 06:19:35;;;;;;;1.80;1.70;;;;;;;-144.22;100.00;60274.75;6227973;28;20310;-65
2022/09/04 06:22:57;;;;;;;1.80;1.70;;;;;;;-144.22;100.00;60274.75;6205228;28;20356;-65
2022/09/04 06:26:24;;;;;;;1.63;1.53;;;;;;;-144.22;100.00;60274.75;6228611;28;20235;-64
2022/09/04 06:29:43;;;;;;;1.33;1.23;;;;;;;-144.22;100.00;60274.75;6227515;28;20841;-65
2022/09/04 06:33:04;;;;;;;1.60;1.50;;;;;;;-144.22;100.00;60274.75;6228494;28;20240;-65
2022/09/04 06:36:17;;;;;;;2.47;1.70;;;;;;;-144.22;100.00;60274.75;6210860;28;20306;-65
2022/09/04 06:39:26;;;;;;;1.90;1.80;;;;;;;-144.22;100.00;60274.75;6227761;28;20215;-65
2022/09/04 06:42:30;;;;;;;1.80;1.70;;;;;;;-144.22;100.00;60274.75;6228637;28;20269;-65
2022/09/04 06:46:20;;;;;;;1.60;1.50;;;;;;;-144.22;100.00;60274.75;6228644;28;20318;-65
2022/09/04 06:49:34;;;;;;;1.53;1.43;;;;;;;-144.22;100.00;60274.75;6187128;28;20287;-64
2022/09/04 06:53:05;;;;;;;1.60;1.50;;;;;;;-144.22;100.00;60274.75;6210065;28;20220;-65
2022/09/04 06:56:49;;;;;;;2.70;1.97;;;;;;;-144.22;100.00;60274.75;6228566;28;20623;-65
2022/09/04 07:00:07;;;;;;;1.80;1.53;;;;;;;-144.22;100.00;60274.75;6197122;28;20374;-65
2022/09/04 07:03:21;;;;;;;1.50;1.40;;;;;;;-144.22;100.00;60274.75;6231253;28;20314;-65
2022/09/04 07:06:52;;;;;;;1.70;1.60;;;;;;;-144.22;100.00;60274.75;6227241;28;20235;-65
2022/09/04 07:10:01;;;;;;;1.40;1.30;;;;;;;-144.22;100.00;60274.75;6232606;28;20768;-65
2022/09/04 07:13:22;;;;;;;1.10;1.10;;;;;;;-144.22;100.00;60274.75;6232078;28;20228;-65
2022/09/04 07:16:49;;;;;;;1.13;1.03;;;;;;;-144.22;100.00;60274.75;6238645;28;20279;-65
2022/09/04 07:20:06;;;;;;;1.93;1.47;;;;;;;-144.22;100.00;60274.75;6232423;28;20232;-65
2022/09/04 07:23:22;;;;;;;1.50;1.20;;;;;;;-144.22;100.00;60274.75;6232577;28;20231;-65
2022/09/04 07:26:55;;;;;;;1.10;1.10;;;;;;;-144.22;100.00;60274.75;6233342;28;20306;-65
2022/09/04 07:30:04;;;;;;;1.40;1.30;;;;;;;-144.22;100.00;60274.75;6175514;28;20235;-65
2022/09/04 07:33:34;;;;;;;1.33;1.23;;;;;;;-144.22;100.00;60274.75;6231359;28;20232;-65
2022/09/04 07:36:56;;;;;;;1.40;1.30;;;;;;;-144.22;100.00;60274.75;6230226;28;20342;-65
2022/09/04 07:40:15;;;;;;;2.50;1.30;;;;;;;-144.22;100.00;60274.75;6232859;28;20327;-65
2022/09/04 07:43:56;;;;;;;1.37;1.10;;;;;;;-144.22;100.00;60274.75;6232049;28;20232;-65
2022/09/04 07:47:13;;;;;;;1.03;1.03;;;;;;;-144.22;100.00;60274.75;6231490;28;20370;-65
2022/09/04 07:50:28;;;;;;;0.90;0.90;;;;;;;-144.22;100.00;60274.75;6232306;28;20954;-65
2022/09/04 07:53:42;;;;;;;1.17;1.07;;;;;;;-144.22;100.00;60274.75;6231117;28;20232;-65
2022/09/04 07:57:09;;;;;;;1.80;1.10;;;;;;;-144.22;100.00;60274.75;6232053;28;20286;-64
2022/09/04 08:00:22;;;;;;;1.20;1.10;;;;;;;-144.22;100.00;60274.75;6231466;28;20227;-64
2022/09/04 08:03:24;;;;;;;1.17;1.10;;;;;;;-144.22;100.00;60274.75;6214222;28;20325;-65
2022/09/04 08:06:26;;;;;;;1.20;1.07;;;;;;;-144.22;100.00;60274.75;6231567;28;20224;-65
2022/09/04 08:09:28;;;;;;;1.43;1.33;;;;;;;-144.22;100.00;60274.75;6229896;28;20231;-64
2022/09/04 08:12:43;;;;;;;1.50;1.40;;;;;;;-144.22;100.00;60274.75;6232453;28;20234;-64
2022/09/04 08:16:06;;;;;;;2.67;1.40;;;;;;;-144.22;100.00;60274.75;6230862;28;20579;-64
2022/09/04 08:19:23;;;;;;;1.43;1.10;;;;;;;-144.22;100.00;60274.75;6231305;28;20695;-64
2022/09/04 08:23:03;;;;;;;1.30;1.20;;;;;;;-144.22;100.00;60274.75;6231162;28;20237;-65
2022/09/04 08:26:14;;;;;;;1.40;1.30;;;;;;;-144.22;100.00;60274.75;6230159;28;20787;-65
2022/09/04 08:29:38;;;;;;;3.80;1.93;;;;;;;-144.22;100.00;60274.75;6229715;28;20228;-64
2022/09/04 08:33:02;;;;;;;1.73;1.60;;;;;;;-144.22;100.00;60274.75;6230284;28;20605;-64
2022/09/04 08:36:24;;;;;;;2.40;1.60;;;;;;;-144.22;100.00;60274.75;6230769;28;20224;-64
2022/09/04 08:39:56;;;;;;;1.80;1.70;;;;;;;-144.22;100.00;60274.75;6212798;28;20720;-64
2022/09/04 08:43:04;;;;;;;1.47;1.37;;;;;;;-144.22;100.00;60274.75;6231111;28;20604;-64
2022/09/04 08:46:28;;;;;;;1.60;1.50;;;;;;;-144.22;100.00;60274.75;6230191;28;20286;-64
2022/09/04 08:49:52;;;;;;;2.60;2.10;;;;;;;-144.22;100.00;60274.75;6231170;28;20637;-65
2022/09/04 08:53:17;;;;;;;2.17;1.90;;;;;;;-144.22;100.00;60274.75;6229927;28;20228;-64
2022/09/04 08:56:36;;;;;;;3.83;1.80;;;;;;;-144.22;100.00;60274.75;6221388;28;20233;-65
2022/09/04 09:00:14;;;;;;;1.90;1.80;;;;;;;-144.22;100.00;60274.75;6221959;28;20224;-64
2022/09/04 09:03:34;;;;;;;2.33;1.93;;;;;;;-144.22;100.00;60274.75;6229581;28;20336;-64
2022/09/04 09:07:21;;;;;;;1.40;1.30;;;;;;;-144.22;100.00;60274.75;6222087;28;20274;-64
2022/09/04 09:10:41;;;;;;;2.50;1.50;;;;;;;-144.22;100.00;60274.75;6229954;28;20327;-64
2022/09/04 09:14:05;;;;;;;1.43;1.33;;;;;;;-144.22;100.00;60274.75;6229237;28;20236;-64
2022/09/04 09:17:15;;;;;;;2.33;1.50;;;;;;;-144.22;100.00;60274.75;6230002;28;20220;-64
2022/09/04 09:20:31;;;;;;;1.60;1.50;;;;;;;-144.22;100.00;60274.75;6230085;28;20347;-65
2022/09/04 09:23:57;;;;;;;3.03;1.80;;;;;;;-144.22;100.00;60274.75;6230003;28;20226;-64
2022/09/04 09:27:14;;;;;;;2.67;2.47;;;;;;;-144.22;100.00;60274.75;6230477;28;20386;-64
2022/09/04 09:30:21;;;;;;;2.23;1.80;;;;;;;-144.22;100.00;60274.75;6228234;28;20317;-65
2022/09/04 09:33:57;;;;;;;2.87;2.00;;;;;;;-144.22;100.00;60274.75;6230432;28;20227;-64
2022/09/04 09:37:22;;;;;;;1.90;1.80;;;;;;;-144.22;100.00;60274.75;6227801;28;20309;-64
2022/09/04 09:40:59;;;;;;;2.57;2.37;;;;;;;-144.22;100.00;60274.75;6227648;28;20232;-64
2022/09/04 09:44:29;;;;;;;1.70;1.60;;;;;;;-144.22;100.00;60274.75;6228706;28;20236;-65
2022/09/04 09:48:09;;;;;;;2.13;2.03;;;;;;;-144.22;100.00;60274.75;6213188;28;20286;-65
2022/09/04 09:51:53;;;;;;;2.17;1.97;;;;;;;-144.22;100.00;60274.75;6227951;28;20709;-64
2022/09/04 09:55:11;;;;;;;2.90;1.93;;;;;;;-144.22;100.00;60274.75;6233849;28;20297;-64
2022/09/04 09:58:46;;;;;;;1.87;1.70;;;;;;;-144.22;100.00;60274.75;6229460;28;20873;-64
2022/09/04 10:01:58;;;;;;;2.60;1.43;;;;;;;-144.22;100.00;60274.75;6228620;28;20291;-64
2022/09/04 10:05:28;;;;;;;1.67;1.57;;;;;;;-144.22;100.00;60274.75;6225365;28;20236;-64
2022/09/04 10:08:52;;;;;;;2.17;1.80;;;;;;;-144.22;100.00;60274.75;6228770;28;20381;-64
2022/09/04 10:12:10;;;;;;;1.70;1.60;;;;;;;-144.22;100.00;60274.75;6228750;28;20251;-65
2022/09/04 10:15:37;;;;;;;1.83;1.50;;;;;;;-144.22;100.00;60274.75;6210185;28;20238;-64
2022/09/04 10:19:18;;;;;;;1.90;1.67;;;;;;;-144.22;100.00;60274.75;6228456;28;20293;-64
2022/09/04 10:22:58;;;;;;;3.60;2.27;;;;;;;-144.22;100.00;60274.75;6219119;28;20236;-64
2022/09/04 10:26:19;;;;;;;3.10;2.90;;;;;;;-144.22;100.00;60274.75;6226831;28;20255;-65
2022/09/04 10:29:43;;;;;;;2.40;2.20;;;;;;;-144.22;100.00;60274.75;6228209;28;20324;-65
2022/09/04 10:32:57;;;;;;;3.40;2.87;;;;;;;-144.22;100.00;60274.75;6228621;28;20326;-64
2022/09/04 10:36:43;;;;;;;2.73;2.37;;;;;;;-144.22;100.00;60274.75;6227834;28;20649;-64
2022/09/04 10:43:42;;;;;;;2.17;1.97;;;;;;;-144.22;100.00;60274.75;6227262;28;20323;-65
2022/09/04 10:46:54;;;;;;;2.40;2.20;;;;;;;-144.22;100.00;60274.75;6229032;28;20249;-65
2022/09/04 10:50:20;;;;;;;1.67;1.57;;;;;;;-144.22;100.00;60274.75;6228408;28;20313;-65
2022/09/04 10:53:50;;;;;;;2.13;1.93;;;;;;;-144.22;100.00;60274.75;6229537;28;20245;-66
2022/09/04 10:57:13;;;;;;;1.90;1.80;;;;;;;-144.22;100.00;60274.75;6177554;28;20702;-65
2022/09/04 11:00:17;;;;;;;2.27;1.90;;;;;;;-144.22;100.00;60274.75;6228535;28;20236;-65
2022/09/04 11:03:42;;;;;;;1.87;1.67;;;;;;;-144.22;100.00;60274.75;6204704;28;20318;-64
2022/09/04 11:07:02;;;;;;;2.03;1.73;;;;;;;-144.22;100.00;60274.75;6213811;28;20227;-64
2022/09/04 11:10:13;;;;;;;2.47;1.90;;;;;;;-144.22;100.00;60274.75;6227817;28;20274;-64
2022/09/04 11:13:37;;;;;;;2.30;1.60;;;;;;;-144.22;100.00;60274.75;6227781;28;20243;-64
2022/09/04 11:16:57;;;;;;;1.83;1.53;;;;;;;-144.22;100.00;60274.75;6231623;28;20323;-64
2022/09/04 11:20:18;;;;;;;2.20;2.00;;;;;;;-144.22;100.00;60274.75;6226565;28;20449;-65
2022/09/04 11:23:39;;;;;;;1.60;1.50;;;;;;;-144.22;100.00;60274.75;6228305;28;20746;-65
2022/09/04 11:27:09;;;;;;;2.00;1.90;;;;;;;-144.22;100.00;60274.75;6226614;28;20223;-65
2022/09/04 11:30:31;;;;;;;3.10;2.33;;;;;;;-144.22;100.00;60274.75;6218843;28;20246;-65
2022/09/04 11:33:54;;;;;;;2.20;2.00;;;;;;;-144.22;100.00;60274.75;6226965;28;20224;-65
2022/09/04 11:38:01;;;;;;;1.93;1.83;;;;;;;-144.22;100.00;60274.75;6231235;28;20232;-65
2022/09/04 11:41:23;;;;;;;1.80;1.70;;;;;;;-144.22;100.00;60274.75;6132957;29;20241;-65
2022/09/04 11:44:59;;;;;;;2.37;2.17;;;;;;;-144.22;100.00;60274.75;6131377;29;20286;-65
2022/09/04 11:48:07;;;;;;;2.57;2.37;;;;;;;-144.22;100.00;60274.75;6131775;29;20239;-65
2022/09/04 11:51:39;;;;;;;1.80;1.70;;;;;;;-144.22;100.00;60274.75;6129368;29;20283;-66
2022/09/04 11:54:59;;;;;;;1.77;1.67;;;;;;;-144.22;100.00;60274.75;6132177;29;20250;-65
2022/09/04 11:58:29;;;;;;;3.53;2.40;;;;;;;-144.22;100.00;60274.75;6133107;28;20258;-65
2022/09/04 12:01:52;;;;;;;2.40;2.20;;;;;;;-144.22;100.00;60274.75;6131320;29;20316;-65
2022/09/04 12:05:06;;;;;;;1.77;1.67;;;;;;;-144.22;100.00;60274.75;6115829;29;20239;-65
2022/09/04 12:08:25;;;;;;;2.00;1.80;;;;;;;-144.22;100.00;60274.75;6131399;29;20355;-65
2022/09/04 12:11:58;;;;;;;2.37;1.57;;;;;;;-144.22;100.00;60274.75;6176843;28;20607;-65
2022/09/04 12:15:11;;;;;;;1.70;1.60;;;;;;;-144.22;100.00;60274.75;6230836;28;20286;-65
2022/09/04 12:18:21;;;;;;;1.70;1.60;;;;;;;-144.22;100.00;60274.75;6235986;28;20318;-65
2022/09/04 12:21:33;;;;;;;2.00;1.90;;;;;;;-144.22;100.00;60274.75;6230119;28;20370;-65
2022/09/04 12:24:59;;;;;;;2.60;2.40;;;;;;;-144.22;100.00;60274.75;6231047;28;20239;-65
2022/09/04 12:28:19;;;;;;;1.80;1.60;;;;;;;-144.22;100.00;60274.75;6231711;28;20232;-65
2022/09/04 12:31:27;;;;;;;2.93;2.30;;;;;;;-144.22;100.00;60274.75;6235502;28;20635;-65
2022/09/04 12:34:49;;;;;;;2.30;2.00;;;;;;;-144.22;100.00;60274.75;6230087;28;20243;-65
2022/09/04 12:37:57;;;;;;;1.57;1.47;;;;;;;-144.22;100.00;60274.75;6230169;28;20718;-65
2022/09/04 12:41:15;;;;;;;1.80;1.70;;;;;;;-144.22;100.00;60274.75;6229765;28;20254;-64
2022/09/04 12:44:46;;;;;;;2.67;1.60;;;;;;;-144.22;100.00;60274.75;6229637;28;20464;-65
2022/09/04 12:48:22;;;;;;;1.53;1.43;;;;;;;-144.22;100.00;60274.75;6224039;28;20231;-66
2022/09/04 12:51:34;;;;;;;3.93;1.57;;;;;;;-144.22;100.00;60274.75;6230158;28;20239;-65
2022/09/04 12:54:53;;;;;;;2.10;1.80;;;;;;;-144.22;100.00;60274.75;6235702;28;20603;-65
2022/09/04 12:58:16;;;;;;;2.03;1.67;;;;;;;-144.22;100.00;60274.75;6230339;28;20297;-65
2022/09/04 13:01:30;;;;;;;2.80;2.13;;;;;;;-144.22;100.00;60274.75;6229313;28;20386;-65
2022/09/04 13:04:58;;;;;;;1.70;1.48;;;;;;;-144.22;100.00;60274.75;6230021;28;20232;-66
2022/09/04 13:08:23;;;;;;;2.08;1.83;;;;;;;-144.22;100.00;60274.75;6229803;28;20240;-66
2022/09/04 13:11:39;;;;;;;2.05;1.88;;;;;;;-144.22;100.00;60274.75;6229455;28;20315;-66
2022/09/04 13:14:55;;;;;;;1.80;1.70;;;;;;;-144.22;100.00;60274.75;6229924;28;20235;-65
2022/09/04 13:18:16;;;;;;;2.08;1.85;;;;;;;-144.22;100.00;60274.75;6230325;28;20228;-66
2022/09/04 13:21:27;;;;;;;3.83;2.40;;;;;;;-144.22;100.00;60274.75;6228821;28;20259;-65
2022/09/04 13:24:41;;;;;;;3.30;2.00;;;;;;;-144.22;100.00;60274.75;6230374;28;20231;-63
2022/09/04 13:28:03;;;;;;;2.03;1.83;;;;;;;-144.22;100.00;60274.75;6228898;28;20711;-63
2022/09/04 13:31:18;;;;;;;1.90;1.70;;;;;;;-144.22;100.00;60274.75;6229329;28;20687;-63
2022/09/04 13:34:49;;;;;;;2.23;1.87;;;;;;;-144.22;100.00;60274.75;6230106;28;20617;-63
2022/09/04 13:38:19;;;;;;;2.57;1.77;;;;;;;-144.22;100.00;60274.75;6221471;28;20879;-64
2022/09/04 13:41:46;;;;;;;2.08;1.90;;;;;;;-144.22;100.00;60274.75;6228997;28;20648;-62
2022/09/04 13:45:18;;;;;;;1.90;1.80;;;;;;;-144.22;100.00;60274.75;6229070;28;20572;-63
2022/09/04 13:48:36;;;;;;;2.70;2.00;;;;;;;-144.22;100.00;60274.75;6228267;28;20612;-62
2022/09/04 13:51:44;;;;;;;3.65;1.80;;;;;;;-144.22;100.00;60274.75;6228365;28;20240;-62
2022/09/04 13:54:55;;;;;;;4.47;1.92;;;;;;;-144.22;100.00;60274.75;6229276;28;20784;-63
2022/09/04 13:58:22;;;;;;;2.38;1.60;;;;;;;-144.22;100.00;60274.75;6227043;28;20846;-62
2022/09/04 14:01:28;;;;;;;3.20;2.40;;;;;;;-144.22;100.00;60274.75;6230376;28;20322;-63
2022/09/04 14:04:42;;;;;;;1.65;1.50;;;;;;;-144.22;100.00;60274.75;6228738;28;20629;-63
2022/09/04 14:07:49;;;;;;;2.08;1.88;;;;;;;-144.22;100.00;60274.75;6203747;28;20705;-62
2022/09/04 14:11:09;;;;;;;2.17;1.90;;;;;;;-144.22;100.00;60274.75;6227908;28;20231;-62
2022/09/04 14:14:29;;;;;;;2.47;2.03;;;;;;;-144.22;100.00;60274.75;6228817;28;20239;-62
2022/09/04 14:17:44;;;;;;;2.10;1.90;;;;;;;-144.22;100.00;60274.75;6233782;28;20378;-63
2022/09/04 14:20:56;;;;;;;2.17;2.00;;;;;;;-144.22;100.00;60274.75;6227669;28;20234;-62
2022/09/04 14:24:08;;;;;;;3.17;1.80;;;;;;;-144.22;100.00;60274.75;6228887;28;20700;-63
2022/09/04 14:27:18;;;;;;;2.55;1.85;;;;;;;-144.22;100.00;60274.75;6227934;28;20688;-62
2022/09/04 14:30:21;;;;;;;1.63;1.48;;;;;;;-144.22;100.00;60274.75;6228112;28;20676;-62
2022/09/04 14:33:35;;;;;;;3.03;2.30;;;;;;;-144.22;100.00;60274.75;6227939;28;20266;-62
2022/09/04 14:36:54;;;;;;;3.03;2.28;;;;;;;-144.22;100.00;60274.75;6228970;28;20563;-62
2022/09/04 14:39:59;;;;;;;1.95;1.63;;;;;;;-144.22;100.00;60274.75;6226748;28;20224;-63
2022/09/04 14:43:20;;;;;;;4.10;2.67;;;;;;;-144.22;100.00;60274.75;6228841;28;20277;-62
2022/09/04 14:46:50;;;;;;;2.70;2.47;;;;;;;-144.22;100.00;60274.75;6228030;28;20219;-62
2022/09/04 14:49:55;;;;;;;2.42;2.17;;;;;;;-144.22;100.00;60274.75;6227216;28;20236;-62
2022/09/04 14:53:04;;;;;;;2.78;2.30;;;;;;;-144.22;100.00;60274.75;6227689;28;20318;-62
2022/09/04 14:56:06;;;;;;;3.20;2.20;;;;;;;-144.22;100.00;60274.75;6226886;28;20319;-62
2022/09/04 14:59:34;;;;;;;2.63;2.40;;;;;;;-144.22;100.00;60274.75;6228150;28;20236;-63
2022/09/04 15:02:42;;;;;;;2.75;2.05;;;;;;;-144.22;100.00;60274.75;6203161;28;20557;-63
2022/09/04 15:05:55;;;;;;;2.50;2.30;;;;;;;-144.22;100.00;60274.75;6208521;28;20240;-62
2022/09/04 15:09:27;;;;;;;3.38;2.60;;;;;;;36.02;100.00;60274.75;6228774;28;20766;-63
2022/09/04 15:12:35;;;;;;;2.10;1.83;;;;;;;-144.22;100.00;60274.75;6233446;28;20240;-62
2022/09/04 15:15:43;;;;;;;3.00;2.10;;;;;;;-144.22;100.00;60274.75;6232044;28;20731;-62
2022/09/04 15:18:54;;;;;;;2.20;2.00;;;;;;;-144.22;100.00;60274.75;6233090;28;20231;-63
2022/09/04 15:22:03;;;;;;;3.60;1.90;;;;;;;-144.22;100.00;60274.75;6233041;28;20256;-63